Time;durP1;ratioP1;P1;durP2;ratioP2;P2;SDS_P1;SDS_P2;PMS_P1;PMS_P2;Temp;Humidity;BMP_temperature;BMP_pressure;BME280_temperature;BME280_humidity;BME280_pressure;Samples;Min_cycle;Max_cycle;Signal;HPM_P1;HPM_P2
2021/12/27 00:00:52;;;;;;;0.00;0.00;;;;;;;7.96;81.07;98837.44;7359191;19;20022;-57
2021/12/27 00:03:18;;;;;;;0.00;0.00;;;;;;;8.02;81.14;98833.75;7359324;19;20018;-57
2021/12/27 00:05:43;;;;;;;0.00;0.00;;;;;;;8.09;80.97;98831.72;7358369;19;20015;-57
2021/12/27 00:08:09;;;;;;;0.10;0.10;;;;;;;8.16;81.23;98830.53;7358717;19;20010;-58
2021/12/27 00:10:34;;;;;;;0.00;0.00;;;;;;;8.23;81.43;98826.78;7355435;19;20017;-58
2021/12/27 00:13:02;;;;;;;0.10;0.10;;;;;;;8.28;81.49;98830.03;7357452;19;20040;-59
2021/12/27 00:15:28;;;;;;;0.10;0.10;;;;;;;8.32;81.22;98822.03;7361503;19;20018;-57
2021/12/27 00:17:53;;;;;;;0.00;0.00;;;;;;;8.40;81.27;98824.31;7355148;19;20500;-58
2021/12/27 00:20:20;;;;;;;0.00;0.00;;;;;;;8.46;81.47;98829.25;7358135;19;20050;-58
2021/12/27 00:22:47;;;;;;;0.00;0.00;;;;;;;8.52;81.57;98818.59;7361490;19;20009;-56
2021/12/27 00:25:13;;;;;;;0.00;0.00;;;;;;;8.58;81.22;98818.31;7361865;19;20020;-57
2021/12/27 00:27:39;;;;;;;0.00;0.00;;;;;;;8.62;81.29;98819.03;7359384;19;20963;-58
2021/12/27 00:30:06;;;;;;;0.00;0.00;;;;;;;8.69;80.77;98814.38;7362576;19;20019;-57
2021/12/27 00:32:37;;;;;;;0.00;0.00;;;;;;;8.72;80.37;98822.06;7358202;19;20014;-58
2021/12/27 00:35:04;;;;;;;0.00;0.00;;;;;;;8.77;80.54;98817.50;7358082;19;20010;-58
2021/12/27 00:37:29;;;;;;;0.00;0.00;;;;;;;8.78;80.42;98813.97;7360956;19;20470;-57
2021/12/27 00:39:55;;;;;;;0.08;0.08;;;;;;;8.80;80.25;98817.34;7352583;19;20021;-58
2021/12/27 00:42:20;;;;;;;0.10;0.10;;;;;;;8.82;80.64;98815.53;7360868;19;20022;-58
2021/12/27 00:44:46;;;;;;;0.10;0.10;;;;;;;8.84;80.54;98817.13;7360548;19;20010;-58
2021/12/27 00:47:11;;;;;;;0.00;0.00;;;;;;;8.87;80.24;98808.34;7358881;19;20121;-58
2021/12/27 00:49:37;;;;;;;0.00;0.00;;;;;;;8.87;80.62;98797.94;7363603;19;20015;-58
2021/12/27 00:52:03;;;;;;;0.00;0.00;;;;;;;8.90;80.44;98802.97;7362229;19;20034;-58
2021/12/27 00:54:28;;;;;;;0.10;0.10;;;;;;;8.91;80.53;98798.63;7360128;19;20030;-58
2021/12/27 00:56:54;;;;;;;0.10;0.10;;;;;;;8.92;80.47;98795.97;7362192;19;20015;-58
2021/12/27 00:59:19;;;;;;;0.00;0.00;;;;;;;8.92;80.24;98788.16;7350379;19;20014;-58
2021/12/27 01:01:45;;;;;;;0.00;0.00;;;;;;;8.93;80.60;98795.03;7358657;19;20058;-58
2021/12/27 01:04:10;;;;;;;0.10;0.10;;;;;;;8.91;79.91;98790.81;7353952;19;20059;-57
2021/12/27 01:06:35;;;;;;;0.10;0.10;;;;;;;8.95;80.01;98792.34;7357637;19;20011;-58
2021/12/27 01:09:02;;;;;;;0.00;0.00;;;;;;;8.96;80.21;98792.28;7356443;19;20098;-58
2021/12/27 01:11:39;;;;;;;0.00;0.00;;;;;;;8.97;80.45;98783.56;7347945;19;20362;-58
2021/12/27 01:14:15;;;;;;;0.10;0.10;;;;;;;8.98;80.26;98774.84;7358437;19;20014;-58
2021/12/27 01:16:43;;;;;;;0.00;0.00;;;;;;;9.01;80.50;98773.84;7354623;19;20011;-58
2021/12/27 01:19:09;;;;;;;0.00;0.00;;;;;;;9.01;80.32;98772.06;7364296;19;20038;-58
2021/12/27 01:21:35;;;;;;;0.00;0.00;;;;;;;9.03;80.42;98759.00;7360787;19;20010;-58
2021/12/27 01:24:02;;;;;;;0.00;0.00;;;;;;;9.03;80.30;98761.63;7363314;19;20015;-57
2021/12/27 01:26:27;;;;;;;0.00;0.00;;;;;;;9.03;80.39;98764.22;7366636;19;20104;-58
2021/12/27 01:28:56;;;;;;;0.10;0.10;;;;;;;9.03;79.74;98762.47;7362731;19;20112;-58
2021/12/27 01:31:22;;;;;;;0.00;0.00;;;;;;;8.98;79.81;98751.41;7365704;19;20054;-58
2021/12/27 01:33:47;;;;;;;0.00;0.00;;;;;;;9.02;79.54;98758.19;7359284;19;20010;-58
2021/12/27 01:36:13;;;;;;;0.10;0.10;;;;;;;9.00;79.64;98753.94;7364583;19;20942;-57
2021/12/27 01:38:40;;;;;;;0.00;0.00;;;;;;;8.97;79.35;98752.34;7364067;19;21110;-58
2021/12/27 01:41:09;;;;;;;0.00;0.00;;;;;;;8.93;78.91;98750.78;7363857;19;20053;-57
2021/12/27 01:43:37;;;;;;;0.10;0.10;;;;;;;8.88;78.92;98752.78;7366550;19;20433;-57
2021/12/27 01:46:04;;;;;;;0.00;0.00;;;;;;;8.80;78.89;98744.47;7363036;19;20020;-57
2021/12/27 01:48:38;;;;;;;0.00;0.00;;;;;;;8.75;78.59;98751.63;7367747;19;20032;-57
2021/12/27 01:51:08;;;;;;;0.00;0.00;;;;;;;8.64;77.45;98740.88;7361795;19;20010;-57
2021/12/27 01:53:36;;;;;;;0.10;0.10;;;;;;;8.54;77.90;98738.72;7367818;19;20011;-57
2021/12/27 01:56:03;;;;;;;0.00;0.00;;;;;;;8.44;77.52;98736.59;7364414;19;20073;-57
2021/12/27 01:58:28;;;;;;;0.10;0.10;;;;;;;8.33;78.06;98730.09;7365903;19;20093;-58
2021/12/27 02:00:57;;;;;;;0.00;0.00;;;;;;;8.26;77.29;98727.81;7365666;19;20010;-58
2021/12/27 02:03:25;;;;;;;0.00;0.00;;;;;;;8.16;77.98;98726.53;7366814;19;20014;-57
2021/12/27 02:05:51;;;;;;;0.00;0.00;;;;;;;8.07;78.28;98718.25;7365722;19;20809;-57
2021/12/27 02:08:16;;;;;;;0.05;0.05;;;;;;;7.99;77.84;98714.31;7364909;19;20014;-57
2021/12/27 02:10:43;;;;;;;0.00;0.00;;;;;;;7.91;78.05;98706.00;7362589;19;20018;-57
2021/12/27 02:13:09;;;;;;;0.00;0.00;;;;;;;7.83;78.71;98703.72;7365173;19;20041;-57
2021/12/27 02:15:35;;;;;;;0.05;0.05;;;;;;;7.76;77.79;98692.78;7365690;19;20010;-58
2021/12/27 02:18:01;;;;;;;0.00;0.00;;;;;;;7.61;77.57;98670.06;7363384;19;20011;-57
2021/12/27 02:20:29;;;;;;;0.10;0.10;;;;;;;7.66;77.30;98685.44;7365690;19;20031;-58
2021/12/27 02:23:00;;;;;;;0.00;0.00;;;;;;;7.59;76.97;98673.63;7365305;19;20013;-57
2021/12/27 02:25:28;;;;;;;0.10;0.10;;;;;;;7.50;77.61;98675.72;7348510;19;20010;-57
2021/12/27 02:27:53;;;;;;;0.03;0.03;;;;;;;7.47;77.63;98672.41;7361098;19;20027;-57
2021/12/27 02:30:21;;;;;;;0.00;0.00;;;;;;;7.40;77.94;98669.22;7362948;19;20015;-58
2021/12/27 02:32:56;;;;;;;0.00;0.00;;;;;;;7.34;77.53;98674.66;7364155;19;20348;-57
2021/12/27 02:35:33;;;;;;;0.00;0.00;;;;;;;7.28;78.14;98661.94;7362450;19;20861;-57
2021/12/27 02:38:00;;;;;;;0.00;0.00;;;;;;;7.18;78.03;98652.84;7363839;19;20467;-57
2021/12/27 02:40:28;;;;;;;0.00;0.00;;;;;;;7.14;77.67;98659.06;7359328;19;20360;-57
2021/12/27 02:42:59;;;;;;;0.00;0.00;;;;;;;7.10;78.02;98654.94;7367808;19;20021;-58
2021/12/27 02:45:27;;;;;;;0.00;0.00;;;;;;;7.05;78.59;98652.53;7367621;19;20038;-58
2021/12/27 02:47:52;;;;;;;0.10;0.10;;;;;;;6.99;78.77;98651.03;7365700;19;20038;-58
2021/12/27 02:50:19;;;;;;;0.00;0.00;;;;;;;6.97;78.72;98649.38;7367448;19;20070;-57
2021/12/27 02:52:45;;;;;;;0.00;0.00;;;;;;;6.92;78.87;98646.97;7367244;19;20010;-57
2021/12/27 02:55:13;;;;;;;0.00;0.00;;;;;;;6.87;79.44;98648.91;7365509;19;20006;-57
2021/12/27 02:57:39;;;;;;;0.10;0.10;;;;;;;6.84;79.10;98649.03;7360769;19;20672;-57
2021/12/27 03:00:10;;;;;;;0.00;0.00;;;;;;;6.81;78.54;98643.97;7359561;19;20015;-57
2021/12/27 03:02:38;;;;;;;0.00;0.00;;;;;;;6.79;77.83;98635.38;7364187;19;20010;-57
2021/12/27 03:05:04;;;;;;;0.00;0.00;;;;;;;6.73;77.57;98635.66;7365728;19;20026;-58
2021/12/27 03:07:30;;;;;;;0.00;0.00;;;;;;;6.70;77.86;98643.56;7363390;19;20006;-57
2021/12/27 03:09:58;;;;;;;0.00;0.00;;;;;;;6.68;77.80;98647.94;7365391;19;20090;-57
2021/12/27 03:12:23;;;;;;;0.00;0.00;;;;;;;6.64;77.74;98642.06;7360487;19;20759;-57
2021/12/27 03:14:49;;;;;;;0.00;0.00;;;;;;;6.33;77.92;98600.91;7362548;19;20015;-57
2021/12/27 03:17:14;;;;;;;0.10;0.10;;;;;;;6.57;78.06;98642.34;7366951;19;20006;-57
2021/12/27 03:19:40;;;;;;;0.10;0.10;;;;;;;6.53;78.51;98643.38;7364731;19;20029;-57
2021/12/27 03:22:05;;;;;;;0.00;0.00;;;;;;;6.49;78.52;98632.31;7361558;19;20010;-58
2021/12/27 03:24:31;;;;;;;0.00;0.00;;;;;;;6.46;78.58;98635.84;7364550;19;20007;-59
2021/12/27 03:26:56;;;;;;;0.00;0.00;;;;;;;6.44;78.86;98635.06;7364878;19;20039;-58
2021/12/27 03:29:21;;;;;;;0.10;0.10;;;;;;;6.13;78.70;98577.53;7361953;19;20015;-57
2021/12/27 03:31:47;;;;;;;0.00;0.00;;;;;;;6.27;78.67;98606.34;7364421;19;20099;-55
2021/12/27 03:34:12;;;;;;;0.00;0.00;;;;;;;6.38;78.44;98624.91;7364257;19;20014;-57
2021/12/27 03:36:39;;;;;;;0.10;0.10;;;;;;;6.36;79.00;98625.91;7361511;19;20050;-58
2021/12/27 03:39:10;;;;;;;0.00;0.00;;;;;;;6.35;78.81;98613.84;7361322;19;20010;-58
2021/12/27 03:41:36;;;;;;;0.00;0.00;;;;;;;6.32;78.34;98613.94;7361101;19;20010;-57
2021/12/27 03:44:03;;;;;;;0.10;0.10;;;;;;;6.31;77.80;98607.94;7365401;19;20078;-56
2021/12/27 03:46:28;;;;;;;0.00;0.00;;;;;;;6.30;78.14;98603.66;7360208;19;20034;-58
2021/12/27 03:48:54;;;;;;;0.00;0.00;;;;;;;6.30;78.81;98603.66;7363019;19;20921;-57
2021/12/27 03:51:20;;;;;;;0.00;0.00;;;;;;;6.30;78.91;98608.00;7363522;19;20481;-58
2021/12/27 03:53:45;;;;;;;0.00;0.00;;;;;;;6.28;78.21;98608.03;7367116;19;20014;-56
2021/12/27 03:56:10;;;;;;;0.10;0.10;;;;;;;6.27;77.88;98600.31;7362043;19;20010;-58
2021/12/27 03:58:57;;;;;;;0.00;0.00;;;;;;;6.25;78.09;98608.16;7363230;19;20010;-57
2021/12/27 04:01:23;;;;;;;0.00;0.00;;;;;;;6.22;77.92;98608.28;7364375;19;20358;-58
2021/12/27 04:03:52;;;;;;;0.03;0.03;;;;;;;6.21;78.42;98596.22;7360179;19;23175;-57
2021/12/27 04:06:20;;;;;;;0.00;0.00;;;;;;;6.15;78.00;98586.09;7358782;19;20011;-57
2021/12/27 04:08:45;;;;;;;;;;;;;;;6.18;77.91;98591.16;7361162;19;20010;-57
2021/12/27 04:11:11;;;;;;;0.10;0.10;;;;;;;6.14;77.73;98584.41;7354180;19;19932;-57
2021/12/27 04:13:36;;;;;;;0.00;0.00;;;;;;;6.12;77.81;98587.06;7365277;19;20038;-55
2021/12/27 04:16:02;;;;;;;0.05;0.05;;;;;;;6.08;78.01;98580.28;7364794;19;20013;-57
2021/12/27 04:18:28;;;;;;;0.00;0.00;;;;;;;6.01;78.58;98573.66;7357646;19;20030;-57
2021/12/27 04:20:54;;;;;;;0.00;0.00;;;;;;;6.00;79.04;98571.16;7358430;19;20762;-58
2021/12/27 04:23:19;;;;;;;0.00;0.00;;;;;;;6.03;78.95;98577.03;7367305;19;20010;-58
2021/12/27 04:25:45;;;;;;;0.00;0.00;;;;;;;6.00;78.98;98572.00;7359551;19;20006;-58
2021/12/27 04:28:12;;;;;;;0.00;0.00;;;;;;;6.03;78.95;98576.19;7366603;19;20024;-57
2021/12/27 04:30:37;;;;;;;0.00;0.00;;;;;;;6.04;79.18;98575.31;7362490;19;20467;-57
2021/12/27 04:33:03;;;;;;;0.05;0.05;;;;;;;6.03;79.48;98571.84;7365188;19;20027;-57
2021/12/27 04:35:29;;;;;;;0.00;0.00;;;;;;;6.04;79.48;98562.34;7363638;19;20017;-57
2021/12/27 04:37:54;;;;;;;0.00;0.00;;;;;;;6.04;79.42;98557.19;7362951;19;20046;-58
2021/12/27 04:40:22;;;;;;;0.00;0.00;;;;;;;6.05;79.22;98553.69;7364126;19;20010;-57
2021/12/27 04:42:56;;;;;;;0.05;0.05;;;;;;;6.06;78.64;98550.19;7363684;19;20006;-57
2021/12/27 04:45:21;;;;;;;0.10;0.10;;;;;;;6.03;78.43;98555.47;7363613;19;20011;-57
2021/12/27 04:47:47;;;;;;;0.00;0.00;;;;;;;6.02;78.06;98543.41;7362781;19;20015;-57
2021/12/27 04:50:13;;;;;;;0.10;0.10;;;;;;;5.98;77.76;98543.56;7362089;19;20011;-58
2021/12/27 04:52:40;;;;;;;0.00;0.00;;;;;;;5.97;77.83;98536.66;7365826;19;20082;-58
2021/12/27 04:55:06;;;;;;;0.10;0.10;;;;;;;5.91;77.99;98525.66;7363789;19;20020;-57
2021/12/27 04:57:32;;;;;;;0.05;0.05;;;;;;;5.94;78.45;98531.63;7366784;19;20023;-58
2021/12/27 04:59:57;;;;;;;0.00;0.00;;;;;;;5.92;78.13;98529.97;7363736;19;20011;-58
2021/12/27 05:02:23;;;;;;;0.00;0.00;;;;;;;5.91;78.02;98531.72;7365752;19;20013;-57
2021/12/27 05:04:48;;;;;;;0.00;0.00;;;;;;;5.90;78.10;98517.06;7365479;19;20374;-57
2021/12/27 05:07:13;;;;;;;0.00;0.00;;;;;;;5.88;78.15;98510.22;7366858;19;20007;-57
2021/12/27 05:09:39;;;;;;;0.00;0.00;;;;;;;5.89;78.47;98520.56;7366674;19;19999;-57
2021/12/27 05:12:05;;;;;;;0.10;0.10;;;;;;;5.87;78.22;98504.22;7361825;19;20035;-57
2021/12/27 05:14:31;;;;;;;0.00;0.00;;;;;;;5.87;78.42;98501.63;7365656;19;20037;-57
2021/12/27 05:16:56;;;;;;;0.00;0.00;;;;;;;5.86;77.98;98507.72;7364459;19;20007;-58
2021/12/27 05:19:22;;;;;;;0.00;0.00;;;;;;;5.86;77.61;98505.13;7363816;19;20011;-57
2021/12/27 05:21:47;;;;;;;0.00;0.00;;;;;;;5.85;78.38;98498.25;7363968;19;20905;-58
2021/12/27 05:24:13;;;;;;;0.00;0.00;;;;;;;5.84;78.75;98487.97;7364707;19;21169;-58
2021/12/27 05:26:39;;;;;;;0.00;0.00;;;;;;;5.78;79.09;98494.25;7364802;19;20053;-57
2021/12/27 05:29:05;;;;;;;0.00;0.00;;;;;;;5.82;79.71;98490.59;7364886;19;20014;-58
2021/12/27 05:31:30;;;;;;;0.00;0.00;;;;;;;5.81;79.35;98491.50;7360888;19;20022;-57
2021/12/27 05:33:56;;;;;;;0.00;0.00;;;;;;;5.68;79.62;98475.63;7361511;19;20070;-57
2021/12/27 05:36:21;;;;;;;0.10;0.10;;;;;;;5.79;79.41;98490.75;7363201;19;20014;-58
2021/12/27 05:38:47;;;;;;;0.03;0.03;;;;;;;5.78;79.54;98488.19;7363082;19;20038;-58
2021/12/27 05:41:12;;;;;;;0.10;0.10;;;;;;;5.71;79.78;98477.22;7362926;19;20006;-57
2021/12/27 05:43:38;;;;;;;0.10;0.10;;;;;;;5.75;79.93;98489.16;7359975;19;20010;-57
2021/12/27 05:46:03;;;;;;;0.00;0.00;;;;;;;5.71;79.52;98482.41;7361203;19;20032;-58
2021/12/27 05:48:29;;;;;;;0.00;0.00;;;;;;;5.73;79.45;98475.44;7361872;19;20014;-57
2021/12/27 05:50:54;;;;;;;0.10;0.10;;;;;;;5.71;79.23;98483.25;7360431;19;20102;-57
2021/12/27 05:53:20;;;;;;;0.10;0.10;;;;;;;5.73;79.32;98475.44;7363025;19;20018;-57
2021/12/27 05:55:46;;;;;;;0.05;0.05;;;;;;;5.72;79.65;98479.75;7363686;19;20010;-57
2021/12/27 05:58:11;;;;;;;0.10;0.10;;;;;;;5.64;79.45;98449.91;7362878;19;20936;-58
2021/12/27 06:00:38;;;;;;;0.00;0.00;;;;;;;5.62;79.65;98449.09;7357824;19;20013;-57
2021/12/27 06:03:04;;;;;;;0.00;0.00;;;;;;;5.70;79.36;98460.00;7362921;19;20037;-57
2021/12/27 06:05:29;;;;;;;0.10;0.10;;;;;;;5.73;79.16;98459.91;7367217;19;20010;-57
2021/12/27 06:07:55;;;;;;;0.00;0.00;;;;;;;5.73;78.93;98459.91;7367108;19;20044;-57
2021/12/27 06:10:21;;;;;;;0.08;0.08;;;;;;;5.73;79.16;98449.56;7370161;19;20007;-58
2021/12/27 06:12:47;;;;;;;0.00;0.00;;;;;;;5.75;79.63;98450.31;7367790;19;20010;-57
2021/12/27 06:15:12;;;;;;;0.00;0.00;;;;;;;5.78;79.66;98450.22;7366355;19;20021;-58
2021/12/27 06:17:39;;;;;;;0.00;0.00;;;;;;;5.81;79.63;98447.47;7369566;19;20475;-57
2021/12/27 06:20:08;;;;;;;0.08;0.08;;;;;;;5.85;79.50;98449.06;7369565;19;20078;-57
2021/12/27 06:22:34;;;;;;;0.10;0.10;;;;;;;5.87;79.88;98439.47;7367523;19;20058;-57
2021/12/27 06:25:03;;;;;;;0.00;0.00;;;;;;;5.91;80.15;98433.28;7367498;19;20018;-57
2021/12/27 06:27:31;;;;;;;0.00;0.00;;;;;;;5.93;79.61;98434.09;7363819;19;20090;-57
2021/12/27 06:29:56;;;;;;;0.10;0.10;;;;;;;5.97;79.48;98440.81;7367042;19;20022;-57
2021/12/27 06:32:22;;;;;;;0.10;0.10;;;;;;;6.00;80.24;98431.25;7363077;19;20710;-57
2021/12/27 06:34:47;;;;;;;0.00;0.00;;;;;;;5.85;80.11;98402.44;7367143;19;20380;-57
2021/12/27 06:37:13;;;;;;;0.00;0.00;;;;;;;6.04;79.97;98427.63;7364972;19;20023;-57
2021/12/27 06:39:38;;;;;;;0.00;0.00;;;;;;;6.06;80.33;98423.22;7366103;19;20017;-58
2021/12/27 06:42:05;;;;;;;0.10;0.10;;;;;;;6.09;79.92;98420.53;7368728;19;20033;-57
2021/12/27 06:44:32;;;;;;;0.00;0.00;;;;;;;6.14;80.38;98416.00;7363684;19;20505;-58
2021/12/27 06:46:59;;;;;;;0.10;0.10;;;;;;;6.17;80.54;98416.69;7366795;19;20014;-57
2021/12/27 06:49:31;;;;;;;0.10;0.10;;;;;;;6.16;80.07;98403.81;7365948;19;20018;-57
2021/12/27 06:51:57;;;;;;;0.00;0.00;;;;;;;6.15;80.20;98399.53;7361590;19;20020;-57
2021/12/27 06:54:22;;;;;;;0.00;0.00;;;;;;;6.32;80.31;98410.03;7366538;19;20925;-58
2021/12/27 06:56:48;;;;;;;0.00;0.00;;;;;;;6.37;80.38;98415.84;7366786;19;20013;-58
2021/12/27 06:59:14;;;;;;;0.10;0.10;;;;;;;6.40;80.53;98409.72;7364788;19;20010;-58
2021/12/27 07:01:39;;;;;;;0.10;0.10;;;;;;;6.47;80.84;98404.19;7368956;19;20336;-57
2021/12/27 07:04:05;;;;;;;0.10;0.10;;;;;;;6.52;81.11;98408.34;7366726;19;20027;-58
2021/12/27 07:06:30;;;;;;;0.00;0.00;;;;;;;6.55;81.00;98403.03;7366489;19;20125;-57
2021/12/27 07:08:57;;;;;;;0.00;0.00;;;;;;;6.58;80.80;98408.91;7363590;19;20019;-58
2021/12/27 07:11:22;;;;;;;0.00;0.00;;;;;;;6.60;80.55;98404.50;7365666;19;20035;-58
2021/12/27 07:13:48;;;;;;;0.10;0.10;;;;;;;6.61;80.51;98397.56;7365372;19;20007;-57
2021/12/27 07:16:13;;;;;;;0.00;0.00;;;;;;;6.61;80.34;98398.41;7363689;19;20010;-58
2021/12/27 07:18:39;;;;;;;0.00;0.00;;;;;;;6.47;80.35;98386.03;7365041;19;20006;-57
2021/12/27 07:21:04;;;;;;;0.00;0.00;;;;;;;6.59;80.29;98399.38;7369347;19;20339;-58
2021/12/27 07:23:30;;;;;;;0.00;0.00;;;;;;;6.62;80.24;98404.44;7363556;19;20014;-57
2021/12/27 07:25:55;;;;;;;0.00;0.00;;;;;;;6.63;80.57;98401.78;7367724;19;20018;-58
2021/12/27 07:28:21;;;;;;;0.00;0.00;;;;;;;6.66;80.27;98408.59;7360751;19;20018;-57
2021/12/27 07:30:47;;;;;;;0.00;0.00;;;;;;;6.68;80.47;98407.59;7366148;19;20010;-57
2021/12/27 07:33:12;;;;;;;0.00;0.00;;;;;;;6.72;80.49;98397.94;7366674;19;20038;-56
2021/12/27 07:35:38;;;;;;;0.00;0.00;;;;;;;6.77;80.66;98398.59;7360202;19;20014;-56
2021/12/27 07:38:04;;;;;;;0.00;0.00;;;;;;;6.78;80.51;98382.09;7367609;19;20112;-58
2021/12/27 07:40:30;;;;;;;0.03;0.03;;;;;;;6.83;80.66;98387.09;7363028;19;20771;-57
2021/12/27 07:42:55;;;;;;;0.00;0.00;;;;;;;6.86;80.91;98382.63;7365113;19;20010;-57
2021/12/27 07:45:21;;;;;;;0.00;0.00;;;;;;;6.89;80.69;98382.47;7362490;19;20014;-57
2021/12/27 07:47:46;;;;;;;0.00;0.00;;;;;;;6.93;80.62;98377.97;7362855;19;20031;-58
2021/12/27 07:50:12;;;;;;;0.05;0.05;;;;;;;6.97;80.45;98384.72;7363260;19;20006;-57
2021/12/27 07:52:38;;;;;;;0.10;0.10;;;;;;;6.99;80.80;98383.75;7365059;19;20010;-58
2021/12/27 07:55:04;;;;;;;0.00;0.00;;;;;;;7.03;80.64;98380.09;7363659;19;20098;-57
2021/12/27 07:57:30;;;;;;;0.10;0.10;;;;;;;7.07;80.80;98379.97;7362286;19;20027;-58
2021/12/27 07:59:55;;;;;;;0.10;0.10;;;;;;;7.10;80.46;98369.47;7364466;19;20010;-57
2021/12/27 08:02:21;;;;;;;0.00;0.00;;;;;;;7.14;80.27;98365.78;7356248;19;20077;-57
2021/12/27 08:04:46;;;;;;;0.00;0.00;;;;;;;7.16;80.31;98358.78;7359770;19;20014;-57
2021/12/27 08:07:12;;;;;;;0.10;0.10;;;;;;;7.17;80.31;98358.69;7362561;19;20015;-57
2021/12/27 08:09:38;;;;;;;0.00;0.00;;;;;;;7.22;80.42;98366.28;7360924;19;20115;-58
2021/12/27 08:12:09;;;;;;;0.00;0.00;;;;;;;7.24;80.52;98367.88;7361197;19;20014;-57
2021/12/27 08:14:35;;;;;;;0.00;0.00;;;;;;;7.28;80.29;98368.59;7355648;19;20021;-57
2021/12/27 08:17:01;;;;;;;0.05;0.05;;;;;;;7.30;80.56;98366.78;7363297;19;20010;-58
2021/12/27 08:19:26;;;;;;;0.00;0.00;;;;;;;7.34;80.43;98359.66;7360530;19;20048;-58
2021/12/27 08:21:51;;;;;;;0.00;0.00;;;;;;;7.35;80.26;98364.81;7361715;19;20017;-58
2021/12/27 08:24:17;;;;;;;0.10;0.10;;;;;;;7.34;79.96;98360.50;7360250;19;20487;-57
2021/12/27 08:26:43;;;;;;;0.00;0.00;;;;;;;7.35;80.16;98364.81;7356229;19;20014;-58
2021/12/27 08:29:10;;;;;;;0.00;0.00;;;;;;;7.32;79.71;98354.56;7355852;19;20050;-57
2021/12/27 08:31:36;;;;;;;0.10;0.10;;;;;;;7.33;80.08;98369.22;7361105;19;20011;-57
2021/12/27 08:34:02;;;;;;;0.10;0.10;;;;;;;7.24;79.88;98354.06;7361974;19;20010;-57
2021/12/27 08:36:28;;;;;;;0.10;0.10;;;;;;;7.27;79.48;98361.72;7362167;19;20047;-56
2021/12/27 08:38:54;;;;;;;0.00;0.00;;;;;;;7.20;79.86;98355.13;7363332;19;20006;-57
2021/12/27 08:41:20;;;;;;;0.00;0.00;;;;;;;7.22;79.33;98368.88;7362661;19;20029;-57
2021/12/27 08:43:46;;;;;;;0.00;0.00;;;;;;;7.17;79.47;98361.31;7360907;19;20568;-57
2021/12/27 08:46:12;;;;;;;0.10;0.10;;;;;;;7.14;79.41;98365.78;7361837;19;20010;-56
2021/12/27 08:48:40;;;;;;;0.00;0.00;;;;;;;7.08;79.51;98363.47;7358270;19;20014;-58
2021/12/27 08:51:06;;;;;;;0.00;0.00;;;;;;;6.96;79.14;98349.31;7362522;19;20928;-58
2021/12/27 08:53:31;;;;;;;0.00;0.00;;;;;;;7.01;79.11;98368.13;7361577;19;20016;-58
2021/12/27 08:55:57;;;;;;;0.00;0.00;;;;;;;6.97;79.18;98370.00;7361174;19;20006;-57
2021/12/27 08:58:23;;;;;;;0.10;0.10;;;;;;;6.93;79.19;98362.41;7361678;19;20128;-57
2021/12/27 09:00:49;;;;;;;0.00;0.00;;;;;;;6.89;79.40;98368.66;7358299;19;20006;-58
2021/12/27 09:03:14;;;;;;;0.00;0.00;;;;;;;6.85;79.08;98367.97;7361076;19;20017;-57
2021/12/27 09:05:42;;;;;;;0.00;0.00;;;;;;;6.83;79.47;98367.19;7358075;19;20030;-58
2021/12/27 09:08:08;;;;;;;0.10;0.10;;;;;;;6.81;79.62;98363.81;7358683;19;20078;-57
2021/12/27 09:10:34;;;;;;;0.10;0.10;;;;;;;6.80;79.83;98361.31;7361578;19;20006;-57
2021/12/27 09:13:00;;;;;;;0.00;0.00;;;;;;;6.79;79.62;98359.59;7349335;19;20059;-56
2021/12/27 09:15:27;;;;;;;0.00;0.00;;;;;;;6.70;79.21;98345.31;7362142;19;20014;-58
2021/12/27 09:17:53;;;;;;;0.00;0.00;;;;;;;6.76;79.69;98356.25;7356054;19;20078;-57
2021/12/27 09:20:18;;;;;;;0.10;0.10;;;;;;;6.61;79.90;98336.19;7358207;19;20082;-56
2021/12/27 09:22:44;;;;;;;0.00;0.00;;;;;;;6.69;80.00;98347.06;7359268;19;20034;-56
2021/12/27 09:25:09;;;;;;;0.03;0.03;;;;;;;6.76;80.25;98350.22;7361387;19;20014;-57
2021/12/27 09:27:35;;;;;;;0.10;0.10;;;;;;;6.73;80.28;98340.81;7355185;19;20031;-58
2021/12/27 09:30:01;;;;;;;0.10;0.10;;;;;;;6.83;80.60;98348.19;7352991;19;20055;-56
2021/12/27 09:32:26;;;;;;;0.00;0.00;;;;;;;6.86;81.25;98343.69;7358217;19;20031;-58
2021/12/27 09:34:52;;;;;;;0.00;0.00;;;;;;;6.88;81.12;98321.13;7353257;19;20344;-57
2021/12/27 09:37:18;;;;;;;0.05;0.05;;;;;;;6.87;81.49;98309.06;7359676;19;20052;-58
2021/12/27 09:39:44;;;;;;;0.00;0.00;;;;;;;7.09;81.57;98326.22;7363517;19;20775;-57
2021/12/27 09:42:09;;;;;;;0.00;0.00;;;;;;;7.18;81.70;98328.41;7362272;19;20042;-58
2021/12/27 09:44:35;;;;;;;0.00;0.00;;;;;;;7.28;81.75;98327.06;7364630;19;20052;-58
2021/12/27 09:47:02;;;;;;;0.05;0.05;;;;;;;7.36;81.42;98329.28;7366398;19;20737;-58
2021/12/27 09:49:29;;;;;;;0.00;0.00;;;;;;;7.46;81.98;98326.19;7364938;19;20483;-58
2021/12/27 09:51:57;;;;;;;0.10;0.10;;;;;;;7.58;82.04;98329.09;7355318;19;20038;-57
2021/12/27 09:54:26;;;;;;;0.00;0.00;;;;;;;7.68;81.65;98319.94;7362483;19;20355;-57
2021/12/27 09:56:51;;;;;;;0.00;0.00;;;;;;;7.76;82.01;98320.41;7364686;19;20019;-57
2021/12/27 09:59:17;;;;;;;0.10;0.10;;;;;;;7.87;81.84;98328.53;7366470;19;20019;-58
2021/12/27 10:01:42;;;;;;;0.00;0.00;;;;;;;7.98;81.45;98323.63;7363365;19;20906;-57
2021/12/27 10:04:08;;;;;;;0.00;0.00;;;;;;;8.10;81.84;98321.31;7360969;19;20006;-57
2021/12/27 10:06:34;;;;;;;0.10;0.10;;;;;;;8.12;81.36;98307.34;7358298;19;20738;-57
2021/12/27 10:09:04;;;;;;;0.10;0.10;;;;;;;8.28;81.15;98315.19;7367511;19;20023;-57
2021/12/27 10:11:35;;;;;;;0.10;0.10;;;;;;;8.39;81.26;98318.09;7363097;19;20755;-57
2021/12/27 10:14:08;;;;;;;0.05;0.05;;;;;;;8.45;80.97;98317.78;7366470;19;20014;-57
2021/12/27 10:16:40;;;;;;;0.10;0.10;;;;;;;8.56;81.31;98320.66;7366055;19;20011;-57
2021/12/27 10:19:08;;;;;;;0.00;0.00;;;;;;;8.64;80.75;98322.03;7364428;19;20015;-58
2021/12/27 10:21:34;;;;;;;0.03;0.03;;;;;;;8.69;80.77;98320.84;7362610;19;20014;-58
2021/12/27 10:24:07;;;;;;;0.08;0.08;;;;;;;8.79;81.04;98314.22;7361437;19;20683;-58
2021/12/27 10:26:34;;;;;;;0.00;0.00;;;;;;;8.84;80.33;98319.19;7364804;19;20010;-58
2021/12/27 10:29:27;;;;;;;0.10;0.10;;;;;;;8.99;81.02;98318.38;7359277;19;20022;-57
2021/12/27 10:32:10;;;;;;;0.10;0.10;;;;;;;9.04;80.08;98311.16;7361342;19;20026;-57
2021/12/27 10:35:04;;;;;;;0.10;0.10;;;;;;;9.15;80.75;98307.13;7357007;19;20093;-58
2021/12/27 10:37:31;;;;;;;0.05;0.05;;;;;;;9.18;79.75;98306.97;7264249;19;2004258;-58
2021/12/27 10:40:04;;;;;;;0.10;0.10;;;;;;;9.25;80.18;98300.47;7361363;19;20010;-57
2021/12/27 10:42:31;;;;;;;0.00;0.00;;;;;;;9.28;79.78;98297.72;7358768;19;20034;-58
2021/12/27 10:45:03;;;;;;;0.10;0.10;;;;;;;9.32;80.23;98297.44;7364214;19;20022;-55
2021/12/27 10:47:35;;;;;;;0.10;0.10;;;;;;;9.38;80.31;98293.66;7365504;19;20014;-58
2021/12/27 10:50:26;;;;;;;0.00;0.00;;;;;;;9.44;80.29;98288.09;7360467;19;20015;-57
2021/12/27 10:53:03;;;;;;;0.10;0.10;;;;;;;9.48;80.55;98283.53;7363388;19;20014;-58
2021/12/27 10:55:40;;;;;;;0.10;0.10;;;;;;;9.54;80.72;98278.84;7365120;19;20034;-58
2021/12/27 10:58:24;;;;;;;0.05;0.05;;;;;;;9.61;80.90;98274.09;7363849;19;20095;-57
2021/12/27 11:00:51;;;;;;;0.00;0.00;;;;;;;9.65;80.93;98267.78;7360426;19;20017;-58
2021/12/27 11:03:41;;;;;;;0.10;0.10;;;;;;;9.74;80.84;98263.81;7360404;19;20023;-57
2021/12/27 11:06:09;;;;;;;0.10;0.10;;;;;;;9.84;80.94;98267.56;7260298;19;2004395;-57
2021/12/27 11:08:38;;;;;;;0.00;0.00;;;;;;;9.90;80.55;98259.38;7349831;19;20086;-58
2021/12/27 11:11:04;;;;;;;0.10;0.10;;;;;;;9.96;80.54;98248.59;7359033;19;20027;-58
2021/12/27 11:13:32;;;;;;;0.10;0.10;;;;;;;10.02;80.45;98243.00;7356365;19;20347;-58
2021/12/27 11:15:57;;;;;;;0.00;0.00;;;;;;;10.02;80.42;98237.78;7356241;19;20003;-57
2021/12/27 11:18:24;;;;;;;0.00;0.00;;;;;;;10.06;80.72;98226.25;7359680;19;20085;-57
2021/12/27 11:21:05;;;;;;;0.00;0.00;;;;;;;10.09;80.48;98220.03;7355354;19;20017;-59
2021/12/27 11:23:31;;;;;;;0.10;0.10;;;;;;;10.21;80.33;98236.69;7362298;19;20006;-58
2021/12/27 11:26:06;;;;;;;0.00;0.00;;;;;;;10.27;80.77;98234.56;7362469;19;20009;-58
2021/12/27 11:28:37;;;;;;;0.10;0.10;;;;;;;10.28;80.21;98224.97;7365368;19;20007;-57
2021/12/27 11:31:22;;;;;;;0.00;0.00;;;;;;;10.33;80.40;98220.31;7358734;19;20026;-58
2021/12/27 11:33:54;;;;;;;0.00;0.00;;;;;;;10.33;80.65;98215.09;7361654;19;19998;-57
2021/12/27 11:36:22;;;;;;;0.00;0.00;;;;;;;10.32;80.16;98213.44;7358893;19;20035;-57
2021/12/27 11:38:48;;;;;;;;;;;;;;;10.38;80.89;98207.81;7360026;19;20013;-57
2021/12/27 11:41:34;;;;;;;0.10;0.10;;;;;;;10.39;80.61;98206.88;7355673;19;20620;-58